Time;durP1;ratioP1;P1;durP2;ratioP2;P2;SDS_P1;SDS_P2;PMS_P1;PMS_P2;Temp;Humidity;BMP_temperature;BMP_pressure;BME280_temperature;BME280_humidity;BME280_pressure;Samples;Min_cycle;Max_cycle;Signal;HPM_P1;HPM_P2
2022/05/31 00:02:00;;;;;;;2.73;2.53;;;20.80;45.50;;;;;;5032058;28;20422;-87
2022/05/31 00:04:29;;;;;;;2.07;1.97;;;20.90;45.50;;;;;;5025346;28;20799;-87
2022/05/31 00:06:57;;;;;;;2.33;2.13;;;20.90;45.60;;;;;;5021382;28;20502;-86
2022/05/31 00:09:25;;;;;;;1.93;1.83;;;20.90;45.60;;;;;;5037120;28;20476;-87
2022/05/31 00:11:55;;;;;;;2.20;2.00;;;20.90;45.60;;;;;;5036741;28;20477;-86
2022/05/31 00:14:24;;;;;;;2.10;1.93;;;20.90;45.40;;;;;;5036282;28;20510;-87
2022/05/31 00:16:52;;;;;;;1.97;1.87;;;20.80;45.70;;;;;;5037383;28;20417;-87
2022/05/31 00:19:23;;;;;;;2.47;2.30;;;20.80;45.70;;;;;;5038649;28;20497;-88
2022/05/31 00:22:04;;;;;;;2.30;2.13;;;20.70;45.70;;;;;;5029259;28;20508;-89
2022/05/31 00:24:32;;;;;;;3.60;2.30;;;20.80;45.50;;;;;;5028393;28;20445;-87
2022/05/31 00:27:02;;;;;;;2.90;1.97;;;20.70;45.50;;;;;;5035350;28;20483;-87
2022/05/31 00:29:30;;;;;;;2.10;2.00;;;20.80;45.70;;;;;;5035092;28;20414;-88
2022/05/31 00:31:59;;;;;;;2.37;2.27;;;20.70;45.70;;;;;;5036182;28;20513;-88
2022/05/31 00:34:27;;;;;;;2.83;2.60;;;20.70;45.60;;;;;;5037586;28;20455;-87
2022/05/31 00:36:56;;;;;;;2.10;2.00;;;20.70;45.60;;;;;;5036300;28;20475;-87
2022/05/31 00:39:24;;;;;;;2.40;2.20;;;20.70;45.70;;;;;;5027962;28;20455;-87
2022/05/31 00:42:01;;;;;;;2.60;2.40;;;20.70;45.80;;;;;;5027418;28;20509;-87
2022/05/31 00:44:30;;;;;;;2.23;2.00;;;20.70;45.70;;;;;;5036424;28;20418;-87
2022/05/31 00:46:59;;;;;;;2.20;2.00;;;20.70;45.50;;;;;;5034977;28;20503;-87
2022/05/31 00:49:32;;;;;;;2.43;2.30;;;20.70;45.70;;;;;;5035407;28;20421;-87
2022/05/31 00:52:01;;;;;;;2.23;2.13;;;20.70;45.70;;;;;;5035159;28;20545;-87
2022/05/31 00:54:31;;;;;;;2.30;2.20;;;20.60;45.60;;;;;;5036328;28;20482;-87
2022/05/31 00:57:00;;;;;;;2.13;1.83;;;20.60;45.80;;;;;;5019777;28;20506;-87
2022/05/31 00:59:32;;;;;;;4.97;2.30;;;20.60;45.80;;;;;;5032941;28;20493;-86
2022/05/31 01:02:00;;;;;;;2.23;2.13;;;20.60;45.60;;;;;;5036146;28;20517;-86
2022/05/31 01:04:33;;;;;;;1.97;1.87;;;20.60;45.80;;;;;;5036140;28;20448;-86
2022/05/31 01:07:02;;;;;;;2.27;2.17;;;20.60;45.70;;;;;;5036054;28;20441;-86
2022/05/31 01:09:30;;;;;;;2.40;1.77;;;20.60;45.70;;;;;;5036509;28;20428;-87
2022/05/31 01:11:58;;;;;;;2.20;2.10;;;20.60;45.60;;;;;;5030505;28;20475;-85
2022/05/31 01:14:28;;;;;;;2.50;2.30;;;20.60;45.80;;;;;;5020732;28;20471;-86
2022/05/31 01:16:58;;;;;;;2.47;2.27;;;20.60;45.70;;;;;;5016090;28;20448;-86
2022/05/31 01:22:16;;;;;;;2.00;1.90;;;20.50;45.90;;;;;;5017183;28;20477;-87
2022/05/31 01:24:51;;;;;;;1.93;1.83;;;20.60;45.80;;;;;;5017379;28;20482;-87
2022/05/31 01:27:28;;;;;;;1.73;1.67;;;20.50;45.70;;;;;;5015685;28;20470;-87
2022/05/31 01:29:56;;;;;;;3.10;2.13;;;20.50;45.70;;;;;;5015682;28;20444;-86
2022/05/31 01:32:24;;;;;;;2.20;2.10;;;20.50;45.70;;;;;;5019864;28;20499;-86
2022/05/31 01:34:54;;;;;;;2.33;2.13;;;20.40;45.60;;;;;;5035241;28;20562;-87
2022/05/31 01:37:26;;;;;;;1.97;1.87;;;20.40;45.90;;;;;;5036936;28;20440;-87
2022/05/31 01:39:57;;;;;;;2.17;1.93;;;20.40;46.00;;;;;;5037128;28;20447;-87
2022/05/31 01:42:30;;;;;;;1.90;1.80;;;20.40;46.50;;;;;;5037784;28;20467;-87
2022/05/31 01:45:01;;;;;;;1.80;1.70;;;20.40;45.80;;;;;;5036422;28;20418;-86
2022/05/31 01:47:29;;;;;;;5.00;2.20;;;20.40;45.90;;;;;;5026966;28;20535;-88
2022/05/31 01:49:57;;;;;;;1.90;1.80;;;20.40;45.90;;;;;;5014965;28;20532;-86
2022/05/31 01:52:27;;;;;;;2.13;1.83;;;20.40;45.90;;;;;;5014186;28;20476;-86
2022/05/31 01:54:55;;;;;;;3.60;2.30;;;20.40;46.00;;;;;;5014846;28;20472;-86
2022/05/31 01:57:23;;;;;;;1.87;1.77;;;20.30;45.80;;;;;;5015334;28;20460;-87
2022/05/31 01:59:53;;;;;;;1.93;1.83;;;20.40;46.00;;;;;;5015259;28;20449;-87
2022/05/31 02:02:21;;;;;;;2.50;1.83;;;20.40;45.90;;;;;;5014558;28;20468;-87
2022/05/31 02:04:50;;;;;;;1.97;1.87;;;20.30;45.90;;;;;;5016937;28;20460;-86
2022/05/31 02:07:19;;;;;;;1.70;1.60;;;20.30;45.80;;;;;;5019825;28;20499;-87
2022/05/31 02:09:52;;;;;;;1.80;1.70;;;20.20;45.90;;;;;;5014724;28;20423;-89
2022/05/31 02:12:25;;;;;;;1.90;1.80;;;20.20;45.90;;;;;;5014286;28;20479;-87
2022/05/31 02:14:53;;;;;;;2.30;2.10;;;20.20;46.00;;;;;;5015541;28;20444;-87
2022/05/31 02:17:21;;;;;;;2.80;2.03;;;20.20;46.10;;;;;;5015259;28;20415;-86
2022/05/31 02:19:49;;;;;;;1.53;1.43;;;20.30;46.00;;;;;;5015969;28;20551;-87
2022/05/31 02:22:19;;;;;;;1.80;1.70;;;20.20;45.90;;;;;;5022427;28;20456;-86
2022/05/31 02:24:49;;;;;;;1.90;1.80;;;20.20;46.00;;;;;;5012382;28;20479;-86
2022/05/31 02:27:17;;;;;;;1.90;1.80;;;20.20;45.90;;;;;;5011774;28;20488;-86
2022/05/31 02:29:45;;;;;;;1.83;1.73;;;20.20;45.80;;;;;;5013071;28;20423;-86
2022/05/31 02:32:14;;;;;;;1.90;1.80;;;20.20;45.90;;;;;;5012590;28;20502;-85
2022/05/31 02:34:44;;;;;;;1.80;1.70;;;20.20;45.90;;;;;;5011924;28;20978;-86
2022/05/31 02:37:13;;;;;;;2.03;1.93;;;20.10;45.80;;;;;;5016669;28;20451;-87
2022/05/31 02:39:41;;;;;;;2.20;2.00;;;20.10;45.90;;;;;;5027022;28;20469;-86
2022/05/31 02:42:10;;;;;;;1.90;1.80;;;20.10;45.90;;;;;;5041251;28;20467;-86
2022/05/31 02:44:39;;;;;;;1.93;1.83;;;20.10;45.90;;;;;;5035933;28;20475;-86
2022/05/31 02:47:07;;;;;;;2.10;2.00;;;20.10;46.20;;;;;;5035335;28;20565;-86
2022/05/31 02:49:36;;;;;;;3.00;2.50;;;20.10;46.00;;;;;;5034753;28;20450;-86
2022/05/31 02:52:04;;;;;;;1.87;1.77;;;20.10;46.00;;;;;;5028042;28;20442;-86
2022/05/31 02:54:33;;;;;;;2.33;2.23;;;20.10;46.10;;;;;;5025858;28;20458;-87
2022/05/31 02:57:01;;;;;;;2.30;2.00;;;20.10;46.00;;;;;;5027510;28;20819;-87
2022/05/31 02:59:30;;;;;;;2.27;2.07;;;20.00;46.00;;;;;;5035080;28;20527;-87
2022/05/31 03:01:59;;;;;;;1.77;1.67;;;20.00;46.10;;;;;;5039696;28;20475;-88
2022/05/31 03:04:27;;;;;;;2.60;2.40;;;20.00;45.90;;;;;;5043917;28;20435;-87
2022/05/31 03:07:01;;;;;;;2.17;1.93;;;20.00;46.00;;;;;;5044502;28;20481;-87
2022/05/31 03:09:30;;;;;;;2.23;2.07;;;20.10;46.10;;;;;;5041632;28;20435;-85
2022/05/31 03:12:00;;;;;;;1.90;1.80;;;20.00;46.00;;;;;;5023826;28;20563;-87
2022/05/31 03:14:31;;;;;;;2.27;2.17;;;20.00;45.90;;;;;;5035846;28;20938;-89
2022/05/31 03:17:00;;;;;;;4.20;2.13;;;20.00;46.00;;;;;;5053072;28;20432;-86
2022/05/31 03:19:30;;;;;;;1.90;1.80;;;20.00;46.00;;;;;;5037822;28;20399;-86
2022/05/31 03:22:00;;;;;;;2.50;1.70;;;20.00;45.90;;;;;;5035598;28;20494;-86
2022/05/31 03:24:30;;;;;;;1.97;1.87;;;20.00;46.10;;;;;;5024175;28;20511;-86
2022/05/31 03:26:58;;;;;;;1.70;1.60;;;20.00;46.10;;;;;;5007771;28;20448;-86
2022/05/31 03:29:26;;;;;;;1.90;1.80;;;20.00;46.00;;;;;;5013111;28;20651;-87
2022/05/31 03:31:56;;;;;;;1.97;1.87;;;20.00;46.10;;;;;;5033910;28;20467;-86
2022/05/31 03:34:24;;;;;;;1.87;1.77;;;20.00;46.20;;;;;;5034823;28;20458;-86
2022/05/31 03:36:52;;;;;;;2.13;1.93;;;19.90;46.00;;;;;;5034187;28;20537;-87
2022/05/31 03:39:20;;;;;;;1.97;1.87;;;19.90;46.10;;;;;;5034276;28;20503;-89
2022/05/31 03:41:48;;;;;;;1.80;1.70;;;19.90;46.00;;;;;;5034829;28;20895;-86
2022/05/31 03:44:16;;;;;;;2.20;2.03;;;19.90;46.10;;;;;;5030745;28;20533;-83
2022/05/31 03:46:47;;;;;;;1.73;1.63;;;19.90;46.20;;;;;;5028851;28;20545;-88
2022/05/31 03:49:17;;;;;;;2.10;2.00;;;19.90;46.20;;;;;;5035158;28;20473;-86
2022/05/31 03:51:45;;;;;;;2.00;1.90;;;20.00;46.20;;;;;;5035421;28;20496;-87
2022/05/31 03:54:13;;;;;;;2.00;1.90;;;20.00;46.00;;;;;;5035599;28;20443;-84
2022/05/31 03:56:41;;;;;;;1.80;1.70;;;19.90;46.10;;;;;;5035976;28;20436;-87
2022/05/31 03:59:10;;;;;;;1.80;1.70;;;19.90;46.00;;;;;;5036101;28;20472;-87
2022/05/31 04:01:38;;;;;;;1.87;1.77;;;20.00;46.20;;;;;;5034057;28;20471;-84
2022/05/31 04:04:06;;;;;;;2.00;1.90;;;19.90;46.10;;;;;;5017912;28;20852;-87
2022/05/31 04:06:36;;;;;;;1.60;1.50;;;19.90;46.00;;;;;;5021422;28;20479;-86
2022/05/31 04:09:04;;;;;;;2.03;1.90;;;19.90;46.00;;;;;;5027244;28;20471;-85
2022/05/31 04:11:32;;;;;;;1.97;1.87;;;19.90;45.90;;;;;;5037435;28;20446;-84
2022/05/31 04:14:00;;;;;;;1.77;1.67;;;19.90;45.60;;;;;;5040445;28;20470;-86
2022/05/31 04:16:29;;;;;;;1.90;1.80;;;19.90;45.80;;;;;;5041917;28;20443;-86
2022/05/31 04:18:58;;;;;;;2.20;2.10;;;19.90;45.60;;;;;;5029720;28;20452;-84
2022/05/31 04:21:26;;;;;;;2.00;1.90;;;19.90;45.70;;;;;;5033824;28;20463;-86
2022/05/31 04:24:08;;;;;;;1.90;1.80;;;19.90;45.40;;;;;;5038829;28;20873;-87
2022/05/31 04:26:38;;;;;;;2.33;1.70;;;19.90;45.40;;;;;;5037439;28;20451;-85
2022/05/31 04:29:06;;;;;;;1.80;1.70;;;19.90;45.40;;;;;;5030867;28;20532;-86
2022/05/31 04:31:34;;;;;;;1.70;1.60;;;19.90;45.20;;;;;;5035557;28;20495;-85
2022/05/31 04:34:03;;;;;;;2.07;1.63;;;19.90;45.20;;;;;;5037060;28;20418;-85
2022/05/31 04:36:32;;;;;;;2.70;1.63;;;19.90;45.30;;;;;;5037408;28;20494;-86
2022/05/31 04:39:01;;;;;;;2.50;2.00;;;19.90;45.50;;;;;;5037669;28;20443;-86
2022/05/31 04:41:30;;;;;;;1.80;1.70;;;20.00;45.70;;;;;;5037144;28;20464;-85
2022/05/31 04:44:00;;;;;;;1.97;1.57;;;20.00;45.40;;;;;;5038335;28;20519;-86
2022/05/31 04:46:29;;;;;;;1.63;1.53;;;20.00;45.60;;;;;;5038135;28;20447;-85
2022/05/31 04:48:58;;;;;;;1.87;1.77;;;20.00;45.60;;;;;;5026036;28;20715;-86
2022/05/31 04:51:27;;;;;;;2.47;1.60;;;20.10;45.60;;;;;;5018524;28;20480;-86
2022/05/31 04:53:55;;;;;;;1.90;1.80;;;20.20;45.70;;;;;;5016150;28;20520;-83
2022/05/31 04:56:25;;;;;;;1.67;1.50;;;20.20;45.40;;;;;;5016264;28;20487;-83
2022/05/31 04:58:53;;;;;;;2.23;1.97;;;20.20;45.70;;;;;;5016535;28;20516;-84
2022/05/31 05:01:22;;;;;;;3.13;1.50;;;20.30;45.60;;;;;;5016178;28;20499;-84
2022/05/31 05:03:50;;;;;;;1.80;1.50;;;20.30;45.60;;;;;;5018414;28;20450;-86
2022/05/31 05:06:19;;;;;;;3.73;1.90;;;20.30;45.60;;;;;;5017639;28;20527;-87
2022/05/31 05:08:48;;;;;;;3.80;1.63;;;20.40;45.70;;;;;;5018966;28;20560;-84
2022/05/31 05:11:17;;;;;;;2.43;1.80;;;20.40;45.50;;;;;;5019585;28;20499;-84
2022/05/31 05:13:47;;;;;;;1.70;1.60;;;20.30;45.50;;;;;;5019170;28;20444;-85
2022/05/31 05:16:16;;;;;;;3.67;1.70;;;20.40;45.70;;;;;;5019526;28;20507;-85
2022/05/31 05:18:44;;;;;;;2.53;1.53;;;20.40;45.50;;;;;;5019910;28;20468;-85
2022/05/31 05:21:13;;;;;;;2.90;1.97;;;20.40;45.60;;;;;;5019450;28;20475;-84
2022/05/31 05:23:41;;;;;;;1.87;1.77;;;20.40;45.60;;;;;;5018743;28;20451;-84
2022/05/31 05:26:09;;;;;;;3.07;1.60;;;20.40;45.60;;;;;;5019341;28;20448;-85
2022/05/31 05:31:27;;;;;;;2.33;1.57;;;20.40;45.70;;;;;;5021778;28;21049;-84
2022/05/31 05:33:55;;;;;;;2.33;1.50;;;20.40;45.60;;;;;;5019260;28;20449;-84
2022/05/31 05:36:23;;;;;;;2.90;1.67;;;20.50;45.60;;;;;;5018760;28;20457;-85
2022/05/31 05:38:52;;;;;;;3.07;1.50;;;20.50;45.80;;;;;;5018705;28;20471;-84
2022/05/31 05:41:21;;;;;;;1.67;1.57;;;20.60;45.70;;;;;;5018221;28;20530;-84
2022/05/31 05:43:49;;;;;;;6.67;1.70;;;20.60;45.70;;;;;;5017620;28;20526;-85
2022/05/31 05:46:20;;;;;;;2.87;1.53;;;20.60;45.60;;;;;;5020095;28;20472;-87
2022/05/31 05:48:50;;;;;;;2.00;1.70;;;20.70;45.60;;;;;;5021170;28;20446;-84
2022/05/31 05:51:19;;;;;;;3.03;1.67;;;20.70;45.50;;;;;;5018347;28;20563;-84
2022/05/31 05:53:47;;;;;;;1.67;1.57;;;20.70;45.60;;;;;;5018841;28;20495;-85
2022/05/31 05:56:15;;;;;;;2.70;1.60;;;20.70;45.60;;;;;;5019052;28;20472;-84
2022/05/31 05:58:43;;;;;;;2.37;1.40;;;20.70;45.50;;;;;;5019856;28;20445;-84
2022/05/31 06:01:14;;;;;;;1.93;1.80;;;20.70;45.50;;;;;;5019380;28;20475;-86
2022/05/31 06:03:44;;;;;;;1.67;1.53;;;20.70;45.60;;;;;;5019096;28;20454;-85
2022/05/31 06:06:14;;;;;;;2.20;1.60;;;20.80;45.60;;;;;;5018203;28;20444;-84
2022/05/31 06:08:43;;;;;;;2.07;1.70;;;20.80;45.50;;;;;;5016284;28;20448;-84
2022/05/31 06:11:12;;;;;;;2.20;1.93;;;20.80;45.40;;;;;;5016590;28;20464;-86
2022/05/31 06:13:43;;;;;;;1.80;1.70;;;20.90;45.70;;;;;;5020175;28;20435;-84
2022/05/31 06:16:11;;;;;;;2.73;1.97;;;20.90;45.40;;;;;;5023448;28;20419;-85
2022/05/31 06:18:41;;;;;;;2.37;2.17;;;21.00;45.40;;;;;;5024574;28;20455;-84
2022/05/31 06:21:09;;;;;;;1.83;1.73;;;21.00;45.50;;;;;;5025328;28;20446;-84
2022/05/31 06:23:39;;;;;;;1.80;1.70;;;21.00;45.50;;;;;;5024326;28;20476;-85
2022/05/31 06:26:07;;;;;;;2.80;2.00;;;21.10;45.50;;;;;;5023751;28;20463;-85
2022/05/31 06:28:35;;;;;;;2.40;1.90;;;21.10;45.40;;;;;;5025153;28;20446;-85
2022/05/31 06:31:03;;;;;;;1.83;1.73;;;21.10;45.30;;;;;;5024307;28;20508;-86
2022/05/31 06:33:31;;;;;;;2.00;1.80;;;21.20;45.40;;;;;;5033628;28;20429;-84
2022/05/31 06:36:01;;;;;;;2.50;1.43;;;21.20;45.30;;;;;;5016874;28;20487;-85
2022/05/31 06:38:29;;;;;;;1.67;1.50;;;21.20;45.30;;;;;;5019334;28;20448;-84
2022/05/31 06:40:58;;;;;;;3.33;1.70;;;21.30;45.30;;;;;;5016384;28;20527;-83
2022/05/31 06:43:26;;;;;;;1.80;1.70;;;21.30;45.20;;;;;;5016569;28;20566;-84
2022/05/31 06:45:55;;;;;;;3.23;1.73;;;21.30;45.20;;;;;;5016465;28;20970;-84
2022/05/31 06:48:23;;;;;;;2.03;1.73;;;21.30;45.20;;;;;;5016316;28;20448;-84
2022/05/31 06:50:51;;;;;;;2.27;1.70;;;21.40;45.20;;;;;;5016403;28;20518;-84
2022/05/31 06:58:52;;;;;;;3.77;2.20;;;21.50;45.10;;;;;;5027519;28;20423;-85
2022/05/31 07:01:22;;;;;;;2.70;1.80;;;21.60;44.90;;;;;;5024665;28;20433;-84
2022/05/31 07:03:51;;;;;;;1.77;1.50;;;21.60;45.00;;;;;;5024598;28;20427;-86
2022/05/31 07:06:19;;;;;;;1.80;1.70;;;21.70;44.90;;;;;;5024900;28;20516;-86
2022/05/31 07:08:48;;;;;;;2.57;1.73;;;21.70;44.90;;;;;;5025159;28;20510;-84
2022/05/31 07:11:17;;;;;;;1.93;1.83;;;21.80;44.90;;;;;;5024082;28;20481;-85
2022/05/31 07:13:45;;;;;;;2.40;2.20;;;21.80;44.70;;;;;;5025096;28;20423;-84
2022/05/31 07:16:16;;;;;;;7.60;1.80;;;21.80;44.80;;;;;;5023922;28;20430;-84
2022/05/31 07:18:44;;;;;;;1.97;1.73;;;21.80;44.80;;;;;;5024644;28;20489;-87
2022/05/31 07:21:12;;;;;;;1.87;1.77;;;21.90;44.80;;;;;;5024642;28;20439;-84
2022/05/31 07:23:41;;;;;;;3.23;2.00;;;21.90;44.80;;;;;;5023962;28;20444;-86
2022/05/31 07:26:09;;;;;;;1.47;1.37;;;22.00;44.70;;;;;;5023838;28;20613;-84
2022/05/31 07:28:59;;;;;;;3.40;1.90;;;22.00;44.70;;;;;;5023552;28;20483;-84
2022/05/31 07:31:27;;;;;;;2.20;1.67;;;22.10;44.60;;;;;;5024053;28;20514;-85
2022/05/31 07:33:58;;;;;;;1.60;1.53;;;22.10;44.50;;;;;;5022996;28;20452;-84
2022/05/31 07:36:27;;;;;;;1.60;1.60;;;22.20;44.50;;;;;;5022099;28;20475;-84
2022/05/31 07:38:55;;;;;;;1.50;1.40;;;22.20;44.40;;;;;;5022238;28;20444;-84
2022/05/31 07:41:23;;;;;;;1.80;1.70;;;22.30;44.50;;;;;;5022351;28;20446;-84
2022/05/31 07:43:51;;;;;;;2.60;1.77;;;22.40;44.30;;;;;;5021572;28;20456;-85
2022/05/31 07:46:21;;;;;;;2.13;1.60;;;22.40;44.30;;;;;;5021476;28;20483;-85
2022/05/31 07:48:49;;;;;;;2.20;2.00;;;22.50;44.30;;;;;;5021821;28;20459;-84
2022/05/31 07:51:17;;;;;;;2.23;1.40;;;22.60;44.40;;;;;;5021615;28;20489;-85
2022/05/31 07:53:45;;;;;;;3.53;1.77;;;22.60;44.60;;;;;;5021590;28;20444;-84
2022/05/31 07:56:14;;;;;;;2.60;1.90;;;22.70;44.30;;;;;;5021466;28;20833;-85
2022/05/31 07:58:42;;;;;;;2.03;1.70;;;22.80;44.20;;;;;;5021363;28;20902;-84
2022/05/31 08:01:13;;;;;;;1.80;1.70;;;22.90;44.70;;;;;;5021224;28;20470;-84
2022/05/31 08:03:42;;;;;;;1.97;1.70;;;22.90;44.00;;;;;;5021627;28;20459;-85
2022/05/31 08:06:11;;;;;;;1.60;1.50;;;23.00;44.10;;;;;;5021740;28;20444;-84
2022/05/31 08:08:41;;;;;;;1.77;1.67;;;23.00;43.90;;;;;;5022541;28;20427;-84
2022/05/31 08:11:10;;;;;;;1.43;1.33;;;23.00;44.10;;;;;;5022728;28;20472;-84
2022/05/31 08:13:39;;;;;;;2.23;1.60;;;23.00;44.20;;;;;;5022273;28;20444;-85
2022/05/31 08:16:08;;;;;;;1.77;1.60;;;23.10;44.20;;;;;;5022865;28;20453;-85
2022/05/31 08:18:36;;;;;;;1.63;1.53;;;23.10;44.30;;;;;;5023164;28;20419;-85
2022/05/31 08:21:06;;;;;;;1.60;1.50;;;23.20;44.50;;;;;;5023208;28;20518;-84
2022/05/31 08:23:35;;;;;;;1.57;1.20;;;23.40;44.60;;;;;;5023959;28;20448;-84
2022/05/31 08:26:03;;;;;;;2.37;1.70;;;23.50;44.40;;;;;;5022990;28;20418;-85
2022/05/31 08:28:31;;;;;;;1.70;1.60;;;23.70;44.50;;;;;;5023433;28;20452;-84
2022/05/31 08:31:00;;;;;;;1.60;1.50;;;23.80;44.40;;;;;;5024614;28;20451;-84
2022/05/31 08:33:29;;;;;;;2.43;1.40;;;24.00;44.40;;;;;;5021846;28;20455;-84
2022/05/31 08:35:57;;;;;;;1.50;1.40;;;24.10;44.20;;;;;;5020212;28;20479;-85
2022/05/31 08:38:32;;;;;;;1.70;1.60;;;24.20;44.10;;;;;;5022186;28;20411;-85
2022/05/31 08:41:08;;;;;;;1.57;1.47;;;24.30;44.00;;;;;;5021276;28;20949;-85
2022/05/31 08:44:00;;;;;;;2.13;1.50;;;24.50;44.30;;;;;;5023067;28;20419;-85
2022/05/31 08:46:33;;;;;;;3.90;1.60;;;24.60;44.10;;;;;;5022493;28;20450;-84
2022/05/31 08:49:02;;;;;;;1.93;1.63;;;24.80;44.00;;;;;;5022454;28;20459;-85
2022/05/31 08:51:55;;;;;;;1.97;1.80;;;24.90;43.90;;;;;;5022169;28;20484;-83
2022/05/31 08:57:21;;;;;;;8.23;1.77;;;25.20;43.70;;;;;;5022765;28;20513;-86
2022/05/31 08:59:52;;;;;;;2.53;2.17;;;25.20;43.40;;;;;;5022355;28;20419;-84
2022/05/31 09:02:22;;;;;;;1.50;1.50;;;25.40;43.50;;;;;;5022124;28;20847;-84
2022/05/31 09:05:13;;;;;;;1.70;1.60;;;25.60;43.60;;;;;;5022632;28;20444;-84
2022/05/31 09:07:43;;;;;;;1.60;1.50;;;25.80;43.40;;;;;;5023250;28;20448;-84
2022/05/31 09:10:18;;;;;;;2.30;1.60;;;25.90;43.00;;;;;;5023179;28;20419;-84
2022/05/31 09:12:49;;;;;;;1.80;1.70;;;25.90;42.80;;;;;;5022507;28;20422;-84
2022/05/31 09:15:19;;;;;;;1.60;1.50;;;25.90;42.80;;;;;;5022937;28;20483;-84
2022/05/31 09:18:02;;;;;;;1.90;1.80;;;25.90;42.90;;;;;;5022538;28;20452;-86
2022/05/31 09:20:33;;;;;;;1.50;1.40;;;26.10;43.10;;;;;;5022532;28;20415;-84
2022/05/31 09:23:01;;;;;;;1.53;1.43;;;26.30;43.10;;;;;;5022882;28;20423;-85
2022/05/31 09:25:35;;;;;;;1.40;1.40;;;26.40;42.80;;;;;;5023326;28;20430;-86
2022/05/31 09:28:05;;;;;;;1.80;1.70;;;26.70;42.80;;;;;;5022852;28;20452;-84
2022/05/31 09:30:37;;;;;;;1.47;1.37;;;26.90;42.60;;;;;;5022373;28;20499;-85
2022/05/31 09:33:09;;;;;;;1.57;1.47;;;27.20;42.40;;;;;;5020298;28;20449;-85
2022/05/31 09:35:42;;;;;;;4.63;1.83;;;27.40;42.10;;;;;;5022077;28;20498;-85
2022/05/31 09:38:37;;;;;;;1.60;1.50;;;27.60;41.80;;;;;;5022193;28;20444;-84
2022/05/31 09:41:10;;;;;;;1.53;1.43;;;27.80;41.40;;;;;;5022697;28;20467;-85
2022/05/31 09:43:42;;;;;;;1.67;1.57;;;27.90;41.10;;;;;;5022400;28;20456;-84
2022/05/31 09:46:12;;;;;;;1.60;1.50;;;28.00;40.80;;;;;;5019225;28;20448;-85
2022/05/31 09:48:45;;;;;;;1.67;1.57;;;28.10;40.80;;;;;;5018643;28;20452;-83
2022/05/31 09:51:19;;;;;;;1.87;1.77;;;28.30;40.80;;;;;;5025598;28;20479;-84
2022/05/31 09:59:23;;;;;;;1.60;1.53;;;28.60;40.20;;;;;;5013026;28;20482;-84
2022/05/31 10:01:51;;;;;;;1.60;1.50;;;28.60;40.00;;;;;;5015190;28;20465;-83
2022/05/31 10:04:24;;;;;;;1.50;1.40;;;28.50;39.90;;;;;;5014732;28;20451;-84
2022/05/31 10:06:58;;;;;;;1.57;1.30;;;28.30;40.10;;;;;;5014645;28;20452;-84
2022/05/31 10:09:31;;;;;;;1.40;1.30;;;28.30;40.30;;;;;;5014040;28;20524;-84
2022/05/31 10:12:17;;;;;;;1.63;1.53;;;28.30;40.20;;;;;;5014084;28;20476;-84
2022/05/31 10:14:47;;;;;;;1.77;1.43;;;28.30;40.30;;;;;;5018209;28;20479;-85
2022/05/31 10:17:41;;;;;;;1.50;1.40;;;28.30;40.30;;;;;;5022594;28;20429;-84
2022/05/31 10:20:13;;;;;;;1.97;1.60;;;28.30;40.20;;;;;;5003382;28;20448;-84
2022/05/31 10:22:49;;;;;;;1.60;1.60;;;28.40;40.30;;;;;;5022832;28;20437;-84
2022/05/31 10:25:19;;;;;;;1.17;1.17;;;28.50;40.00;;;;;;5022908;28;20451;-83
2022/05/31 10:27:48;;;;;;;1.53;1.50;;;28.60;39.90;;;;;;5022527;28;20449;-83
2022/05/31 10:30:18;;;;;;;1.50;1.40;;;28.50;39.70;;;;;;5023253;28;20419;-85
2022/05/31 10:32:49;;;;;;;1.33;1.23;;;28.50;39.80;;;;;;5023500;28;20484;-86
2022/05/31 10:35:18;;;;;;;2.20;1.57;;;28.40;39.80;;;;;;5023492;28;20444;-86
2022/05/31 10:37:55;;;;;;;1.80;1.70;;;28.30;39.70;;;;;;5023361;28;20453;-84
2022/05/31 10:40:26;;;;;;;1.50;1.40;;;28.30;39.90;;;;;;5022596;28;20451;-83
2022/05/31 10:42:58;;;;;;;1.53;1.53;;;28.30;39.80;;;;;;5022382;28;20455;-85
2022/05/31 10:45:28;;;;;;;1.70;1.60;;;28.40;40.00;;;;;;5021712;28;20448;-85
2022/05/31 10:47:57;;;;;;;2.57;1.70;;;28.70;40.10;;;;;;5020820;28;20475;-84
2022/05/31 10:50:33;;;;;;;1.33;1.23;;;28.80;39.60;;;;;;5021979;28;20444;-84
2022/05/31 10:53:08;;;;;;;1.13;1.10;;;28.90;40.00;;;;;;5022963;28;20486;-82
2022/05/31 10:55:38;;;;;;;1.57;1.47;;;28.90;39.10;;;;;;5022873;28;20485;-85
2022/05/31 10:58:25;;;;;;;1.60;1.50;;;28.70;39.10;;;;;;5023289;28;20422;-82
2022/05/31 11:00:55;;;;;;;1.40;1.30;;;28.60;39.00;;;;;;5025712;28;20504;-84
2022/05/31 11:03:29;;;;;;;1.60;1.50;;;28.40;39.20;;;;;;5026800;28;20495;-85
2022/05/31 11:06:08;;;;;;;2.00;1.50;;;28.20;39.50;;;;;;5025629;28;20455;-85
2022/05/31 11:11:35;;;;;;;1.77;1.67;;;27.90;39.60;;;;;;5024956;28;20487;-85
2022/05/31 11:14:32;;;;;;;1.90;1.50;;;27.90;39.90;;;;;;5025878;28;20451;-85
2022/05/31 11:17:07;;;;;;;1.30;1.20;;;27.90;40.10;;;;;;5026427;28;20415;-83
2022/05/31 11:19:40;;;;;;;1.30;1.30;;;28.10;40.10;;;;;;5027844;28;20443;-84
2022/05/31 11:22:24;;;;;;;1.67;1.57;;;28.20;39.70;;;;;;5028276;28;20460;-83
2022/05/31 11:25:07;;;;;;;1.40;1.30;;;28.10;39.50;;;;;;5025268;28;20495;-85
2022/05/31 11:27:39;;;;;;;1.27;1.20;;;28.00;39.60;;;;;;5025504;28;20844;-84
2022/05/31 11:30:17;;;;;;;1.43;1.37;;;27.90;39.70;;;;;;5026189;28;20422;-85
2022/05/31 11:33:18;;;;;;;1.40;1.30;;;28.40;40.30;;;;;;5025747;28;20497;-86
2022/05/31 11:35:52;;;;;;;1.40;1.30;;;29.20;38.60;;;;;;5019242;28;20447;-85
2022/05/31 11:38:22;;;;;;;1.30;1.20;;;29.40;38.30;;;;;;5021898;28;20443;-84
2022/05/31 11:40:56;;;;;;;1.40;1.30;;;29.50;37.70;;;;;;5024022;28;20472;-85
2022/05/31 11:44:00;;;;;;;1.30;1.30;;;29.20;37.70;;;;;;5026630;28;20436;-84
2022/05/31 11:46:30;;;;;;;1.50;1.40;;;28.90;38.00;;;;;;5026047;28;20494;-85
2022/05/31 11:49:00;;;;;;;1.37;1.27;;;28.70;38.50;;;;;;5025252;28;20444;-84
2022/05/31 11:51:50;;;;;;;1.50;1.40;;;28.50;38.80;;;;;;5025370;28;20472;-85
2022/05/31 11:55:25;;;;;;;1.63;1.53;;;28.30;38.90;;;;;;5025648;28;20459;-85
2022/05/31 11:57:44;;;;;;;1.27;1.17;;;28.20;39.20;;;;;;5009083;28;20539;-84
2022/05/31 12:00:13;;;;;;;1.80;1.53;;;28.00;39.30;;;;;;5025357;28;20467;-84
2022/05/31 12:02:46;;;;;;;2.73;1.20;;;27.90;39.40;;;;;;5026204;28;20436;-84
2022/05/31 12:05:15;;;;;;;1.30;1.30;;;27.70;39.60;;;;;;5025235;28;20444;-85
2022/05/31 12:07:46;;;;;;;1.90;1.10;;;27.70;39.70;;;;;;5025417;28;20423;-85
2022/05/31 12:10:17;;;;;;;1.37;1.37;;;27.60;39.90;;;;;;5025427;28;20419;-85
2022/05/31 12:12:45;;;;;;;1.40;1.30;;;27.70;40.00;;;;;;5025039;28;20475;-85
2022/05/31 12:15:23;;;;;;;1.30;1.30;;;27.60;40.00;;;;;;5024314;28;20448;-85
2022/05/31 12:17:55;;;;;;;1.40;1.30;;;27.60;39.90;;;;;;5023816;28;20479;-84
2022/05/31 12:20:25;;;;;;;1.40;1.30;;;27.70;39.90;;;;;;5024733;28;20445;-84
2022/05/31 12:22:58;;;;;;;1.87;1.43;;;27.80;39.80;;;;;;5023646;28;20448;-84
2022/05/31 12:25:27;;;;;;;1.30;1.30;;;28.10;39.90;;;;;;5024351;28;20485;-84
2022/05/31 12:27:57;;;;;;;1.67;1.57;;;28.30;39.50;;;;;;5023644;28;20459;-83
2022/05/31 12:30:26;;;;;;;1.50;1.50;;;28.40;39.10;;;;;;5023552;28;20433;-85
2022/05/31 12:32:55;;;;;;;1.23;1.20;;;28.30;39.00;;;;;;5023740;28;20544;-84
2022/05/31 12:35:52;;;;;;;1.50;1.40;;;28.40;38.90;;;;;;5024335;28;20515;-84
2022/05/31 12:38:21;;;;;;;1.20;1.20;;;28.40;38.80;;;;;;5024451;28;20448;-85
2022/05/31 12:40:50;;;;;;;1.40;1.30;;;28.20;38.80;;;;;;5023086;28;20491;-84
2022/05/31 12:43:47;;;;;;;1.57;1.40;;;28.10;38.90;;;;;;5023545;28;20440;-85
2022/05/31 12:46:37;;;;;;;1.10;1.10;;;28.00;39.20;;;;;;5024126;28;20411;-84
2022/05/31 12:49:09;;;;;;;1.40;1.40;;;27.80;39.40;;;;;;5020022;28;20448;-84
2022/05/31 12:51:38;;;;;;;1.67;1.57;;;27.70;39.50;;;;;;5024506;28;20540;-84
2022/05/31 12:54:21;;;;;;;1.37;1.27;;;27.70;39.70;;;;;;5024186;28;20496;-85
2022/05/31 12:56:59;;;;;;;1.40;1.40;;;27.60;39.70;;;;;;5024054;28;20448;-84
2022/05/31 12:59:52;;;;;;;1.70;1.60;;;27.50;39.80;;;;;;5024232;28;20527;-85
2022/05/31 13:02:38;;;;;;;1.80;1.70;;;27.40;39.90;;;;;;5024147;28;20464;-85
2022/05/31 13:05:31;;;;;;;1.30;1.20;;;27.50;40.00;;;;;;5024106;28;20471;-84
2022/05/31 13:08:12;;;;;;;1.83;1.73;;;27.50;40.00;;;;;;5026870;28;20435;-87
2022/05/31 13:19:34;;;;;;;1.40;1.30;;;27.70;39.80;;;;;;5017500;28;20460;-84
2022/05/31 13:21:57;;;;;;;1.57;1.47;;;28.10;39.10;;;;;;5014522;28;20502;-85
2022/05/31 13:24:25;;;;;;;1.60;1.50;;;28.10;39.30;;;;;;5016506;28;20444;-83
2022/05/31 13:26:53;;;;;;;1.43;1.40;;;28.00;39.20;;;;;;5015283;28;20448;-83
2022/05/31 13:29:21;;;;;;;1.33;1.23;;;28.00;39.20;;;;;;5015883;28;20452;-84
2022/05/31 13:31:51;;;;;;;1.40;1.30;;;28.00;39.20;;;;;;5016046;28;20555;-84
2022/05/31 13:34:31;;;;;;;1.70;1.60;;;28.20;39.30;;;;;;5014820;28;20480;-84
2022/05/31 13:37:02;;;;;;;1.83;1.70;;;28.30;38.90;;;;;;5015311;28;20475;-82
2022/05/31 13:39:33;;;;;;;2.20;1.33;;;28.40;38.80;;;;;;5014999;28;20423;-83
2022/05/31 13:42:02;;;;;;;2.00;1.57;;;28.40;38.80;;;;;;5014540;28;20472;-83